sensor_id;sensor_type;location;lat;lon;timestamp;P1;durP1;ratioP1;P2;durP2;ratioP2
21503;SDS011;10913;51.992;9.228;2023-07-22T00:02:16;7.53;;;4.93;;
21503;SDS011;10913;51.992;9.228;2023-07-22T00:04:42;6.05;;;5.00;;
21503;SDS011;10913;51.992;9.228;2023-07-22T00:07:07;7.60;;;5.78;;
21503;SDS011;10913;51.992;9.228;2023-07-22T00:09:33;6.07;;;5.43;;
21503;SDS011;10913;51.992;9.228;2023-07-22T00:12:01;5.28;;;4.68;;
21503;SDS011;10913;51.992;9.228;2023-07-22T00:14:27;5.55;;;5.05;;
21503;SDS011;10913;51.992;9.228;2023-07-22T00:16:52;6.30;;;5.32;;
21503;SDS011;10913;51.992;9.228;2023-07-22T00:19:18;6.18;;;5.57;;
21503;SDS011;10913;51.992;9.228;2023-07-22T00:21:43;6.00;;;5.40;;
21503;SDS011;10913;51.992;9.228;2023-07-22T00:24:09;7.30;;;5.57;;
21503;SDS011;10913;51.992;9.228;2023-07-22T00:26:35;6.50;;;5.63;;
21503;SDS011;10913;51.992;9.228;2023-07-22T00:29:01;5.93;;;5.32;;
21503;SDS011;10913;51.992;9.228;2023-07-22T00:31:27;6.00;;;5.10;;
21503;SDS011;10913;51.992;9.228;2023-07-22T00:33:53;6.78;;;5.10;;
21503;SDS011;10913;51.992;9.228;2023-07-22T00:36:18;6.90;;;5.88;;
21503;SDS011;10913;51.992;9.228;2023-07-22T00:38:43;6.35;;;5.50;;
21503;SDS011;10913;51.992;9.228;2023-07-22T00:41:09;6.40;;;5.65;;
21503;SDS011;10913;51.992;9.228;2023-07-22T00:43:34;6.95;;;5.57;;
21503;SDS011;10913;51.992;9.228;2023-07-22T00:45:59;7.70;;;5.60;;
21503;SDS011;10913;51.992;9.228;2023-07-22T00:48:25;7.20;;;5.75;;
21503;SDS011;10913;51.992;9.228;2023-07-22T00:50:52;8.45;;;5.78;;
21503;SDS011;10913;51.992;9.228;2023-07-22T00:53:18;8.10;;;6.20;;
21503;SDS011;10913;51.992;9.228;2023-07-22T00:55:43;7.43;;;5.85;;
21503;SDS011;10913;51.992;9.228;2023-07-22T00:58:10;7.47;;;5.90;;
21503;SDS011;10913;51.992;9.228;2023-07-22T01:00:35;7.95;;;6.28;;
21503;SDS011;10913;51.992;9.228;2023-07-22T01:03:01;8.05;;;6.32;;
21503;SDS011;10913;51.992;9.228;2023-07-22T01:05:26;9.75;;;7.22;;
21503;SDS011;10913;51.992;9.228;2023-07-22T01:07:53;8.75;;;6.38;;
21503;SDS011;10913;51.992;9.228;2023-07-22T01:10:18;8.85;;;7.22;;
21503;SDS011;10913;51.992;9.228;2023-07-22T01:12:45;8.82;;;7.25;;
21503;SDS011;10913;51.992;9.228;2023-07-22T01:15:10;12.55;;;8.32;;
21503;SDS011;10913;51.992;9.228;2023-07-22T01:17:36;10.13;;;7.55;;
21503;SDS011;10913;51.992;9.228;2023-07-22T01:20:02;12.15;;;7.97;;
21503;SDS011;10913;51.992;9.228;2023-07-22T01:22:29;9.38;;;7.65;;
21503;SDS011;10913;51.992;9.228;2023-07-22T01:24:54;12.07;;;8.70;;
21503;SDS011;10913;51.992;9.228;2023-07-22T01:27:21;11.38;;;8.07;;
21503;SDS011;10913;51.992;9.228;2023-07-22T01:29:46;11.20;;;8.00;;
21503;SDS011;10913;51.992;9.228;2023-07-22T01:32:15;10.93;;;8.05;;
21503;SDS011;10913;51.992;9.228;2023-07-22T01:34:40;11.93;;;8.82;;
21503;SDS011;10913;51.992;9.228;2023-07-22T01:37:06;11.73;;;8.13;;
21503;SDS011;10913;51.992;9.228;2023-07-22T01:39:32;10.75;;;8.20;;
21503;SDS011;10913;51.992;9.228;2023-07-22T01:41:57;11.02;;;7.90;;
21503;SDS011;10913;51.992;9.228;2023-07-22T01:44:23;11.52;;;8.77;;
21503;SDS011;10913;51.992;9.228;2023-07-22T01:46:48;13.88;;;8.55;;
21503;SDS011;10913;51.992;9.228;2023-07-22T01:49:13;10.90;;;7.70;;
21503;SDS011;10913;51.992;9.228;2023-07-22T01:51:39;10.68;;;8.30;;
21503;SDS011;10913;51.992;9.228;2023-07-22T01:54:08;11.75;;;9.18;;
21503;SDS011;10913;51.992;9.228;2023-07-22T01:56:34;12.35;;;8.50;;
21503;SDS011;10913;51.992;9.228;2023-07-22T01:59:00;10.63;;;8.30;;
21503;SDS011;10913;51.992;9.228;2023-07-22T02:01:26;13.52;;;8.57;;
21503;SDS011;10913;51.992;9.228;2023-07-22T02:03:53;12.55;;;8.70;;
21503;SDS011;10913;51.992;9.228;2023-07-22T02:06:18;13.23;;;8.70;;
21503;SDS011;10913;51.992;9.228;2023-07-22T02:08:44;11.77;;;8.32;;
21503;SDS011;10913;51.992;9.228;2023-07-22T02:11:10;11.43;;;8.80;;
21503;SDS011;10913;51.992;9.228;2023-07-22T02:13:36;11.95;;;8.27;;
21503;SDS011;10913;51.992;9.228;2023-07-22T02:16:02;10.65;;;8.05;;
21503;SDS011;10913;51.992;9.228;2023-07-22T02:18:28;11.55;;;7.85;;
21503;SDS011;10913;51.992;9.228;2023-07-22T02:20:54;11.10;;;7.50;;
21503;SDS011;10913;51.992;9.228;2023-07-22T02:23:20;10.27;;;7.63;;
21503;SDS011;10913;51.992;9.228;2023-07-22T02:25:50;9.68;;;7.20;;
21503;SDS011;10913;51.992;9.228;2023-07-22T02:28:16;9.95;;;7.20;;
21503;SDS011;10913;51.992;9.228;2023-07-22T02:30:46;12.25;;;7.75;;
21503;SDS011;10913;51.992;9.228;2023-07-22T02:33:11;10.00;;;7.75;;
21503;SDS011;10913;51.992;9.228;2023-07-22T02:35:36;10.05;;;7.50;;
21503;SDS011;10913;51.992;9.228;2023-07-22T02:38:02;9.38;;;7.13;;
21503;SDS011;10913;51.992;9.228;2023-07-22T02:40:27;8.63;;;6.82;;
21503;SDS011;10913;51.992;9.228;2023-07-22T02:42:52;9.55;;;7.28;;
21503;SDS011;10913;51.992;9.228;2023-07-22T02:45:18;9.85;;;7.00;;
21503;SDS011;10913;51.992;9.228;2023-07-22T02:47:43;8.63;;;7.07;;
21503;SDS011;10913;51.992;9.228;2023-07-22T02:50:09;8.50;;;6.97;;
21503;SDS011;10913;51.992;9.228;2023-07-22T02:52:34;9.93;;;6.65;;
21503;SDS011;10913;51.992;9.228;2023-07-22T02:55:19;8.55;;;6.55;;
21503;SDS011;10913;51.992;9.228;2023-07-22T02:57:44;9.48;;;7.03;;
21503;SDS011;10913;51.992;9.228;2023-07-22T03:00:14;9.15;;;6.53;;
21503;SDS011;10913;51.992;9.228;2023-07-22T03:02:50;9.57;;;6.88;;
21503;SDS011;10913;51.992;9.228;2023-07-22T03:05:22;10.45;;;6.70;;
21503;SDS011;10913;51.992;9.228;2023-07-22T03:07:48;8.57;;;6.40;;
21503;SDS011;10913;51.992;9.228;2023-07-22T03:10:13;10.57;;;7.63;;
21503;SDS011;10913;51.992;9.228;2023-07-22T03:12:38;9.88;;;7.43;;
21503;SDS011;10913;51.992;9.228;2023-07-22T03:15:04;10.30;;;7.15;;
21503;SDS011;10913;51.992;9.228;2023-07-22T03:17:33;10.25;;;6.85;;
21503;SDS011;10913;51.992;9.228;2023-07-22T03:19:58;9.27;;;6.88;;
21503;SDS011;10913;51.992;9.228;2023-07-22T03:22:24;10.18;;;7.30;;
21503;SDS011;10913;51.992;9.228;2023-07-22T03:24:49;10.07;;;7.30;;
21503;SDS011;10913;51.992;9.228;2023-07-22T03:27:14;9.82;;;7.10;;
21503;SDS011;10913;51.992;9.228;2023-07-22T03:29:42;9.43;;;7.20;;
21503;SDS011;10913;51.992;9.228;2023-07-22T03:32:07;9.18;;;6.97;;
21503;SDS011;10913;51.992;9.228;2023-07-22T03:34:34;10.10;;;7.03;;
21503;SDS011;10913;51.992;9.228;2023-07-22T03:37:00;10.38;;;7.45;;
21503;SDS011;10913;51.992;9.228;2023-07-22T03:39:25;9.07;;;6.93;;
21503;SDS011;10913;51.992;9.228;2023-07-22T03:41:51;11.68;;;7.65;;
21503;SDS011;10913;51.992;9.228;2023-07-22T03:44:16;10.88;;;7.10;;
21503;SDS011;10913;51.992;9.228;2023-07-22T03:46:41;8.73;;;7.28;;
21503;SDS011;10913;51.992;9.228;2023-07-22T03:49:07;8.60;;;6.78;;
21503;SDS011;10913;51.992;9.228;2023-07-22T03:51:33;9.80;;;7.32;;
21503;SDS011;10913;51.992;9.228;2023-07-22T03:53:59;8.70;;;7.00;;
21503;SDS011;10913;51.992;9.228;2023-07-22T03:56:24;10.30;;;7.78;;
21503;SDS011;10913;51.992;9.228;2023-07-22T03:58:50;11.15;;;7.88;;
21503;SDS011;10913;51.992;9.228;2023-07-22T04:01:16;10.88;;;8.30;;
21503;SDS011;10913;51.992;9.228;2023-07-22T04:03:41;10.10;;;7.65;;
21503;SDS011;10913;51.992;9.228;2023-07-22T04:06:07;10.85;;;7.28;;
21503;SDS011;10913;51.992;9.228;2023-07-22T04:08:32;10.55;;;6.93;;
21503;SDS011;10913;51.992;9.228;2023-07-22T04:10:58;8.57;;;6.78;;
21503;SDS011;10913;51.992;9.228;2023-07-22T04:13:24;10.10;;;7.07;;
21503;SDS011;10913;51.992;9.228;2023-07-22T04:15:50;10.02;;;7.95;;
21503;SDS011;10913;51.992;9.228;2023-07-22T04:18:16;11.93;;;7.88;;
21503;SDS011;10913;51.992;9.228;2023-07-22T04:20:44;9.68;;;7.57;;
21503;SDS011;10913;51.992;9.228;2023-07-22T04:23:10;9.18;;;7.20;;
21503;SDS011;10913;51.992;9.228;2023-07-22T04:25:39;9.65;;;7.32;;
21503;SDS011;10913;51.992;9.228;2023-07-22T04:28:05;12.13;;;7.68;;
21503;SDS011;10913;51.992;9.228;2023-07-22T04:30:30;12.35;;;8.18;;
21503;SDS011;10913;51.992;9.228;2023-07-22T04:32:56;10.30;;;6.93;;
21503;SDS011;10913;51.992;9.228;2023-07-22T04:35:21;11.82;;;7.10;;
21503;SDS011;10913;51.992;9.228;2023-07-22T04:37:46;10.68;;;7.50;;
21503;SDS011;10913;51.992;9.228;2023-07-22T04:40:12;9.15;;;7.40;;
21503;SDS011;10913;51.992;9.228;2023-07-22T04:42:42;9.00;;;7.40;;
21503;SDS011;10913;51.992;9.228;2023-07-22T04:45:08;11.75;;;7.47;;
21503;SDS011;10913;51.992;9.228;2023-07-22T04:47:37;11.52;;;7.57;;
21503;SDS011;10913;51.992;9.228;2023-07-22T04:50:06;10.20;;;7.45;;
21503;SDS011;10913;51.992;9.228;2023-07-22T04:52:34;9.35;;;6.75;;
21503;SDS011;10913;51.992;9.228;2023-07-22T04:55:00;9.80;;;6.90;;
21503;SDS011;10913;51.992;9.228;2023-07-22T04:57:25;10.40;;;7.10;;
21503;SDS011;10913;51.992;9.228;2023-07-22T04:59:51;8.98;;;7.13;;
21503;SDS011;10913;51.992;9.228;2023-07-22T05:02:16;9.82;;;7.18;;
21503;SDS011;10913;51.992;9.228;2023-07-22T05:04:41;10.23;;;7.57;;
21503;SDS011;10913;51.992;9.228;2023-07-22T05:07:07;11.23;;;7.95;;
21503;SDS011;10913;51.992;9.228;2023-07-22T05:09:32;11.68;;;7.78;;
21503;SDS011;10913;51.992;9.228;2023-07-22T05:11:58;9.43;;;7.40;;
21503;SDS011;10913;51.992;9.228;2023-07-22T05:14:23;9.80;;;7.65;;
21503;SDS011;10913;51.992;9.228;2023-07-22T05:16:49;11.32;;;8.18;;
21503;SDS011;10913;51.992;9.228;2023-07-22T05:19:14;9.93;;;7.15;;
21503;SDS011;10913;51.992;9.228;2023-07-22T05:21:39;11.00;;;8.23;;
21503;SDS011;10913;51.992;9.228;2023-07-22T05:24:06;11.95;;;7.85;;
21503;SDS011;10913;51.992;9.228;2023-07-22T05:26:31;8.93;;;7.22;;
21503;SDS011;10913;51.992;9.228;2023-07-22T05:28:57;9.63;;;7.20;;
21503;SDS011;10913;51.992;9.228;2023-07-22T05:31:22;9.85;;;7.25;;
21503;SDS011;10913;51.992;9.228;2023-07-22T05:33:48;10.52;;;7.60;;
21503;SDS011;10913;51.992;9.228;2023-07-22T05:36:13;10.27;;;7.63;;
21503;SDS011;10913;51.992;9.228;2023-07-22T05:38:38;10.85;;;7.78;;
21503;SDS011;10913;51.992;9.228;2023-07-22T05:41:04;11.63;;;8.00;;
21503;SDS011;10913;51.992;9.228;2023-07-22T05:43:29;11.57;;;7.55;;
21503;SDS011;10913;51.992;9.228;2023-07-22T05:45:54;11.98;;;7.70;;
21503;SDS011;10913;51.992;9.228;2023-07-22T05:48:20;12.88;;;8.45;;
21503;SDS011;10913;51.992;9.228;2023-07-22T05:50:46;13.18;;;8.93;;
21503;SDS011;10913;51.992;9.228;2023-07-22T05:53:12;12.93;;;8.98;;
21503;SDS011;10913;51.992;9.228;2023-07-22T05:55:38;13.40;;;9.30;;
21503;SDS011;10913;51.992;9.228;2023-07-22T05:58:03;13.23;;;9.15;;
21503;SDS011;10913;51.992;9.228;2023-07-22T06:00:32;13.60;;;9.88;;
21503;SDS011;10913;51.992;9.228;2023-07-22T06:02:58;12.70;;;9.32;;
21503;SDS011;10913;51.992;9.228;2023-07-22T06:05:24;12.98;;;8.90;;
21503;SDS011;10913;51.992;9.228;2023-07-22T06:07:49;11.00;;;8.68;;
21503;SDS011;10913;51.992;9.228;2023-07-22T06:10:15;15.10;;;9.50;;
21503;SDS011;10913;51.992;9.228;2023-07-22T06:12:40;11.02;;;8.68;;
21503;SDS011;10913;51.992;9.228;2023-07-22T06:15:06;10.80;;;8.68;;
21503;SDS011;10913;51.992;9.228;2023-07-22T06:17:32;11.82;;;8.50;;
21503;SDS011;10913;51.992;9.228;2023-07-22T06:19:58;11.93;;;8.38;;
21503;SDS011;10913;51.992;9.228;2023-07-22T06:22:23;11.55;;;8.55;;
21503;SDS011;10913;51.992;9.228;2023-07-22T06:24:49;10.27;;;8.35;;
21503;SDS011;10913;51.992;9.228;2023-07-22T06:27:14;10.45;;;8.10;;
21503;SDS011;10913;51.992;9.228;2023-07-22T06:29:39;12.60;;;8.18;;
21503;SDS011;10913;51.992;9.228;2023-07-22T06:32:05;12.25;;;8.77;;
21503;SDS011;10913;51.992;9.228;2023-07-22T06:34:30;11.93;;;8.68;;
21503;SDS011;10913;51.992;9.228;2023-07-22T06:36:56;10.65;;;8.02;;
21503;SDS011;10913;51.992;9.228;2023-07-22T06:39:21;11.80;;;8.27;;
21503;SDS011;10913;51.992;9.228;2023-07-22T06:41:46;11.13;;;8.57;;
21503;SDS011;10913;51.992;9.228;2023-07-22T06:44:12;10.52;;;8.30;;
21503;SDS011;10913;51.992;9.228;2023-07-22T06:46:37;10.30;;;8.43;;
21503;SDS011;10913;51.992;9.228;2023-07-22T06:49:02;11.60;;;8.52;;
21503;SDS011;10913;51.992;9.228;2023-07-22T06:51:28;14.27;;;10.13;;
21503;SDS011;10913;51.992;9.228;2023-07-22T06:53:53;14.13;;;9.75;;
21503;SDS011;10913;51.992;9.228;2023-07-22T06:56:19;15.32;;;10.35;;
21503;SDS011;10913;51.992;9.228;2023-07-22T06:58:44;14.93;;;10.30;;
21503;SDS011;10913;51.992;9.228;2023-07-22T07:01:09;16.75;;;11.45;;
21503;SDS011;10913;51.992;9.228;2023-07-22T07:03:35;14.20;;;10.15;;
21503;SDS011;10913;51.992;9.228;2023-07-22T07:06:00;13.45;;;9.85;;
21503;SDS011;10913;51.992;9.228;2023-07-22T07:08:26;15.60;;;11.55;;
21503;SDS011;10913;51.992;9.228;2023-07-22T07:10:52;12.52;;;9.15;;
21503;SDS011;10913;51.992;9.228;2023-07-22T07:13:17;12.25;;;9.18;;
21503;SDS011;10913;51.992;9.228;2023-07-22T07:15:45;12.85;;;9.15;;
21503;SDS011;10913;51.992;9.228;2023-07-22T07:18:13;14.95;;;11.32;;
21503;SDS011;10913;51.992;9.228;2023-07-22T07:20:38;14.18;;;9.40;;
21503;SDS011;10913;51.992;9.228;2023-07-22T07:23:03;12.07;;;8.45;;
21503;SDS011;10913;51.992;9.228;2023-07-22T07:25:29;12.13;;;8.88;;
21503;SDS011;10913;51.992;9.228;2023-07-22T07:27:54;12.55;;;9.52;;
21503;SDS011;10913;51.992;9.228;2023-07-22T07:30:20;13.02;;;9.93;;
21503;SDS011;10913;51.992;9.228;2023-07-22T07:32:45;12.02;;;9.50;;
21503;SDS011;10913;51.992;9.228;2023-07-22T07:35:10;12.48;;;9.02;;
21503;SDS011;10913;51.992;9.228;2023-07-22T07:37:36;11.85;;;8.60;;
21503;SDS011;10913;51.992;9.228;2023-07-22T07:40:02;11.70;;;8.18;;
21503;SDS011;10913;51.992;9.228;2023-07-22T07:42:28;12.93;;;8.88;;
21503;SDS011;10913;51.992;9.228;2023-07-22T07:44:53;11.50;;;8.95;;
21503;SDS011;10913;51.992;9.228;2023-07-22T07:47:19;10.38;;;8.13;;
21503;SDS011;10913;51.992;9.228;2023-07-22T07:49:45;9.98;;;7.88;;
21503;SDS011;10913;51.992;9.228;2023-07-22T07:52:10;10.63;;;8.68;;
21503;SDS011;10913;51.992;9.228;2023-07-22T07:54:36;11.50;;;8.43;;
21503;SDS011;10913;51.992;9.228;2023-07-22T07:57:01;7.85;;;7.05;;
21503;SDS011;10913;51.992;9.228;2023-07-22T07:59:26;8.95;;;7.50;;
21503;SDS011;10913;51.992;9.228;2023-07-22T08:01:52;11.63;;;7.45;;
21503;SDS011;10913;51.992;9.228;2023-07-22T08:04:18;8.82;;;6.80;;
21503;SDS011;10913;51.992;9.228;2023-07-22T08:06:43;9.05;;;7.22;;
21503;SDS011;10913;51.992;9.228;2023-07-22T08:09:10;9.15;;;7.70;;
21503;SDS011;10913;51.992;9.228;2023-07-22T08:11:36;9.95;;;7.50;;
21503;SDS011;10913;51.992;9.228;2023-07-22T08:14:02;8.52;;;6.75;;
21503;SDS011;10913;51.992;9.228;2023-07-22T08:16:27;9.05;;;6.82;;
21503;SDS011;10913;51.992;9.228;2023-07-22T08:18:53;7.85;;;6.63;;
21503;SDS011;10913;51.992;9.228;2023-07-22T08:21:18;7.53;;;6.72;;
21503;SDS011;10913;51.992;9.228;2023-07-22T08:23:45;9.30;;;7.57;;
21503;SDS011;10913;51.992;9.228;2023-07-22T08:26:11;10.13;;;7.38;;
21503;SDS011;10913;51.992;9.228;2023-07-22T08:28:37;8.85;;;7.53;;
21503;SDS011;10913;51.992;9.228;2023-07-22T08:31:02;9.25;;;7.20;;
21503;SDS011;10913;51.992;9.228;2023-07-22T08:33:28;10.65;;;8.80;;
21503;SDS011;10913;51.992;9.228;2023-07-22T08:35:53;9.80;;;8.07;;
21503;SDS011;10913;51.992;9.228;2023-07-22T08:38:19;9.55;;;7.90;;
21503;SDS011;10913;51.992;9.228;2023-07-22T08:40:47;9.52;;;7.30;;
21503;SDS011;10913;51.992;9.228;2023-07-22T08:43:15;12.35;;;8.23;;
21503;SDS011;10913;51.992;9.228;2023-07-22T08:45:43;11.20;;;8.88;;
21503;SDS011;10913;51.992;9.228;2023-07-22T08:48:09;13.77;;;9.32;;
21503;SDS011;10913;51.992;9.228;2023-07-22T08:53:32;12.68;;;9.52;;
21503;SDS011;10913;51.992;9.228;2023-07-22T08:56:02;10.88;;;9.05;;
21503;SDS011;10913;51.992;9.228;2023-07-22T08:58:27;11.40;;;9.00;;
21503;SDS011;10913;51.992;9.228;2023-07-22T09:00:54;11.38;;;8.02;;
21503;SDS011;10913;51.992;9.228;2023-07-22T09:03:20;10.27;;;7.93;;
21503;SDS011;10913;51.992;9.228;2023-07-22T09:05:46;13.23;;;9.05;;
21503;SDS011;10913;51.992;9.228;2023-07-22T09:08:12;9.02;;;6.65;;
21503;SDS011;10913;51.992;9.228;2023-07-22T09:10:38;11.07;;;8.18;;
21503;SDS011;10913;51.992;9.228;2023-07-22T09:13:04;8.85;;;7.32;;
21503;SDS011;10913;51.992;9.228;2023-07-22T09:15:31;11.00;;;7.93;;
21503;SDS011;10913;51.992;9.228;2023-07-22T09:18:01;9.88;;;8.20;;
21503;SDS011;10913;51.992;9.228;2023-07-22T09:20:26;11.05;;;8.25;;
21503;SDS011;10913;51.992;9.228;2023-07-22T09:22:53;11.60;;;8.25;;
21503;SDS011;10913;51.992;9.228;2023-07-22T09:25:19;12.55;;;8.50;;
21503;SDS011;10913;51.992;9.228;2023-07-22T09:27:46;10.98;;;8.18;;
21503;SDS011;10913;51.992;9.228;2023-07-22T09:35:13;10.95;;;8.50;;
21503;SDS011;10913;51.992;9.228;2023-07-22T09:37:38;11.45;;;7.75;;
21503;SDS011;10913;51.992;9.228;2023-07-22T09:40:26;8.90;;;7.28;;
21503;SDS011;10913;51.992;9.228;2023-07-22T09:42:53;11.23;;;8.18;;
21503;SDS011;10913;51.992;9.228;2023-07-22T09:45:24;10.90;;;8.93;;
21503;SDS011;10913;51.992;9.228;2023-07-22T09:47:51;11.93;;;8.82;;
21503;SDS011;10913;51.992;9.228;2023-07-22T09:50:21;13.32;;;9.23;;
21503;SDS011;10913;51.992;9.228;2023-07-22T09:52:51;10.63;;;8.40;;
21503;SDS011;10913;51.992;9.228;2023-07-22T09:55:21;11.70;;;8.13;;
21503;SDS011;10913;51.992;9.228;2023-07-22T09:57:55;10.00;;;7.82;;
21503;SDS011;10913;51.992;9.228;2023-07-22T10:00:23;11.20;;;9.27;;
21503;SDS011;10913;51.992;9.228;2023-07-22T10:02:51;12.30;;;8.48;;
21503;SDS011;10913;51.992;9.228;2023-07-22T10:05:17;11.98;;;8.32;;
21503;SDS011;10913;51.992;9.228;2023-07-22T10:07:45;12.98;;;9.20;;
21503;SDS011;10913;51.992;9.228;2023-07-22T10:10:16;10.60;;;7.85;;
21503;SDS011;10913;51.992;9.228;2023-07-22T10:12:44;10.77;;;7.88;;
21503;SDS011;10913;51.992;9.228;2023-07-22T10:15:10;8.70;;;7.32;;
21503;SDS011;10913;51.992;9.228;2023-07-22T10:17:37;9.27;;;7.78;;
21503;SDS011;10913;51.992;9.228;2023-07-22T10:20:03;10.43;;;7.65;;
21503;SDS011;10913;51.992;9.228;2023-07-22T10:22:35;8.07;;;6.82;;
21503;SDS011;10913;51.992;9.228;2023-07-22T10:25:05;7.72;;;6.93;;
21503;SDS011;10913;51.992;9.228;2023-07-22T10:27:32;8.07;;;7.03;;
21503;SDS011;10913;51.992;9.228;2023-07-22T10:29:59;10.52;;;7.70;;
21503;SDS011;10913;51.992;9.228;2023-07-22T10:32:31;9.45;;;6.50;;
21503;SDS011;10913;51.992;9.228;2023-07-22T10:34:57;8.02;;;6.70;;
21503;SDS011;10913;51.992;9.228;2023-07-22T10:37:29;7.50;;;6.80;;
21503;SDS011;10913;51.992;9.228;2023-07-22T10:40:44;7.30;;;6.25;;
21503;SDS011;10913;51.992;9.228;2023-07-22T10:43:20;7.88;;;6.18;;
21503;SDS011;10913;51.992;9.228;2023-07-22T10:45:40;7.05;;;6.13;;
21503;SDS011;10913;51.992;9.228;2023-07-22T10:48:10;8.57;;;5.90;;
21503;SDS011;10913;51.992;9.228;2023-07-22T10:50:47;6.45;;;5.60;;
21503;SDS011;10913;51.992;9.228;2023-07-22T11:06:37;6.00;;;5.05;;
21503;SDS011;10913;51.992;9.228;2023-07-22T11:09:54;6.70;;;5.30;;
21503;SDS011;10913;51.992;9.228;2023-07-22T11:14:31;6.25;;;5.47;;
21503;SDS011;10913;51.992;9.228;2023-07-22T11:17:03;6.22;;;5.43;;
21503;SDS011;10913;51.992;9.228;2023-07-22T11:19:29;5.93;;;5.32;;
21503;SDS011;10913;51.992;9.228;2023-07-22T11:21:55;6.03;;;5.22;;
21503;SDS011;10913;51.992;9.228;2023-07-22T11:24:21;6.70;;;5.75;;
21503;SDS011;10913;51.992;9.228;2023-07-22T11:26:48;6.60;;;5.70;;
21503;SDS011;10913;51.992;9.228;2023-07-22T11:29:14;7.00;;;5.90;;
21503;SDS011;10913;51.992;9.228;2023-07-22T11:31:41;7.22;;;5.90;;
21503;SDS011;10913;51.992;9.228;2023-07-22T11:34:12;6.60;;;5.90;;
21503;SDS011;10913;51.992;9.228;2023-07-22T11:36:39;7.53;;;6.30;;
21503;SDS011;10913;51.992;9.228;2023-07-22T11:39:06;6.13;;;5.63;;
21503;SDS011;10913;51.992;9.228;2023-07-22T11:41:32;8.73;;;6.30;;
21503;SDS011;10913;51.992;9.228;2023-07-22T11:44:01;8.48;;;6.43;;
21503;SDS011;10913;51.992;9.228;2023-07-22T11:46:29;8.80;;;6.68;;
21503;SDS011;10913;51.992;9.228;2023-07-22T11:48:54;8.32;;;6.55;;
21503;SDS011;10913;51.992;9.228;2023-07-22T11:51:21;7.25;;;6.55;;
21503;SDS011;10913;51.992;9.228;2023-07-22T11:53:48;6.75;;;5.95;;
21503;SDS011;10913;51.992;9.228;2023-07-22T11:56:27;9.68;;;7.28;;
21503;SDS011;10913;51.992;9.228;2023-07-22T11:58:56;6.28;;;5.68;;
21503;SDS011;10913;51.992;9.228;2023-07-22T12:01:22;7.25;;;6.35;;
21503;SDS011;10913;51.992;9.228;2023-07-22T12:03:48;7.10;;;5.97;;
21503;SDS011;10913;51.992;9.228;2023-07-22T12:06:15;7.97;;;7.15;;
21503;SDS011;10913;51.992;9.228;2023-07-22T12:08:47;9.50;;;6.75;;
21503;SDS011;10913;51.992;9.228;2023-07-22T12:11:17;8.05;;;6.60;;
21503;SDS011;10913;51.992;9.228;2023-07-22T12:13:43;6.05;;;5.45;;
21503;SDS011;10913;51.992;9.228;2023-07-22T12:16:11;7.25;;;6.07;;
21503;SDS011;10913;51.992;9.228;2023-07-22T12:18:43;5.93;;;5.43;;
21503;SDS011;10913;51.992;9.228;2023-07-22T12:21:10;6.90;;;6.20;;
21503;SDS011;10913;51.992;9.228;2023-07-22T12:23:36;6.72;;;6.03;;
21503;SDS011;10913;51.992;9.228;2023-07-22T12:26:02;6.53;;;5.63;;
21503;SDS011;10913;51.992;9.228;2023-07-22T12:28:29;5.55;;;5.05;;
21503;SDS011;10913;51.992;9.228;2023-07-22T12:30:54;5.90;;;5.35;;
21503;SDS011;10913;51.992;9.228;2023-07-22T12:33:22;7.55;;;6.32;;
21503;SDS011;10913;51.992;9.228;2023-07-22T12:35:47;6.88;;;6.07;;
21503;SDS011;10913;51.992;9.228;2023-07-22T12:38:13;7.05;;;5.85;;
21503;SDS011;10913;51.992;9.228;2023-07-22T12:40:38;8.15;;;5.95;;
21503;SDS011;10913;51.992;9.228;2023-07-22T12:43:03;6.72;;;6.07;;
21503;SDS011;10913;51.992;9.228;2023-07-22T12:45:29;7.28;;;5.72;;
21503;SDS011;10913;51.992;9.228;2023-07-22T12:47:55;6.47;;;5.88;;
21503;SDS011;10913;51.992;9.228;2023-07-22T12:50:20;6.60;;;5.90;;
21503;SDS011;10913;51.992;9.228;2023-07-22T12:52:46;5.60;;;5.10;;
21503;SDS011;10913;51.992;9.228;2023-07-22T12:55:11;6.00;;;5.40;;
21503;SDS011;10913;51.992;9.228;2023-07-22T12:57:36;6.47;;;5.88;;
21503;SDS011;10913;51.992;9.228;2023-07-22T13:00:02;6.10;;;5.50;;
21503;SDS011;10913;51.992;9.228;2023-07-22T13:02:31;6.50;;;5.50;;
21503;SDS011;10913;51.992;9.228;2023-07-22T13:04:56;5.35;;;4.85;;
21503;SDS011;10913;51.992;9.228;2023-07-22T13:07:22;6.75;;;5.93;;
21503;SDS011;10913;51.992;9.228;2023-07-22T13:09:47;6.13;;;5.55;;
21503;SDS011;10913;51.992;9.228;2023-07-22T13:12:13;6.10;;;5.50;;
21503;SDS011;10913;51.992;9.228;2023-07-22T13:14:39;6.68;;;5.60;;
21503;SDS011;10913;51.992;9.228;2023-07-22T13:17:04;7.25;;;5.88;;
21503;SDS011;10913;51.992;9.228;2023-07-22T13:19:29;5.45;;;4.95;;
21503;SDS011;10913;51.992;9.228;2023-07-22T13:21:55;6.28;;;5.25;;
21503;SDS011;10913;51.992;9.228;2023-07-22T13:24:21;5.97;;;4.88;;
21503;SDS011;10913;51.992;9.228;2023-07-22T13:26:46;7.28;;;5.00;;
21503;SDS011;10913;51.992;9.228;2023-07-22T13:29:12;6.15;;;5.10;;
21503;SDS011;10913;51.992;9.228;2023-07-22T13:31:37;5.18;;;4.50;;
21503;SDS011;10913;51.992;9.228;2023-07-22T13:34:02;6.35;;;4.97;;
21503;SDS011;10913;51.992;9.228;2023-07-22T13:36:28;5.18;;;4.60;;
21503;SDS011;10913;51.992;9.228;2023-07-22T13:38:53;4.57;;;4.18;;
21503;SDS011;10913;51.992;9.228;2023-07-22T13:41:18;5.47;;;4.80;;
21503;SDS011;10913;51.992;9.228;2023-07-22T13:43:44;4.82;;;4.20;;
21503;SDS011;10913;51.992;9.228;2023-07-22T13:46:10;5.00;;;4.32;;
21503;SDS011;10913;51.992;9.228;2023-07-22T13:48:35;4.90;;;4.43;;
21503;SDS011;10913;51.992;9.228;2023-07-22T13:51:01;6.07;;;4.97;;
21503;SDS011;10913;51.992;9.228;2023-07-22T13:53:26;4.70;;;4.20;;
21503;SDS011;10913;51.992;9.228;2023-07-22T13:55:51;4.85;;;4.45;;
21503;SDS011;10913;51.992;9.228;2023-07-22T13:58:17;4.97;;;4.30;;
21503;SDS011;10913;51.992;9.228;2023-07-22T14:00:42;5.20;;;4.70;;
21503;SDS011;10913;51.992;9.228;2023-07-22T14:03:07;4.28;;;3.88;;
21503;SDS011;10913;51.992;9.228;2023-07-22T14:05:32;4.75;;;4.35;;
21503;SDS011;10913;51.992;9.228;2023-07-22T14:07:58;5.18;;;4.60;;
21503;SDS011;10913;51.992;9.228;2023-07-22T14:10:23;4.07;;;3.72;;
21503;SDS011;10913;51.992;9.228;2023-07-22T14:12:49;4.40;;;4.00;;
21503;SDS011;10913;51.992;9.228;2023-07-22T14:15:14;5.57;;;4.53;;
21503;SDS011;10913;51.992;9.228;2023-07-22T14:17:39;5.28;;;4.20;;
21503;SDS011;10913;51.992;9.228;2023-07-22T14:20:05;5.57;;;4.70;;
21503;SDS011;10913;51.992;9.228;2023-07-22T14:22:31;5.15;;;4.65;;
21503;SDS011;10913;51.992;9.228;2023-07-22T14:24:57;7.80;;;4.93;;
21503;SDS011;10913;51.992;9.228;2023-07-22T14:27:22;5.55;;;4.80;;
21503;SDS011;10913;51.992;9.228;2023-07-22T14:29:48;5.05;;;4.60;;
21503;SDS011;10913;51.992;9.228;2023-07-22T14:32:13;5.35;;;4.60;;
21503;SDS011;10913;51.992;9.228;2023-07-22T14:34:41;5.18;;;4.68;;
21503;SDS011;10913;51.992;9.228;2023-07-22T14:37:06;5.18;;;4.65;;
21503;SDS011;10913;51.992;9.228;2023-07-22T14:39:32;4.60;;;4.20;;
21503;SDS011;10913;51.992;9.228;2023-07-22T14:41:58;6.05;;;5.03;;
21503;SDS011;10913;51.992;9.228;2023-07-22T14:44:23;4.97;;;4.50;;
21503;SDS011;10913;51.992;9.228;2023-07-22T14:46:48;5.97;;;5.10;;
21503;SDS011;10913;51.992;9.228;2023-07-22T14:49:13;5.30;;;4.80;;
21503;SDS011;10913;51.992;9.228;2023-07-22T14:51:39;5.82;;;5.22;;
21503;SDS011;10913;51.992;9.228;2023-07-22T14:54:07;5.30;;;4.80;;
21503;SDS011;10913;51.992;9.228;2023-07-22T14:56:34;6.78;;;4.82;;
21503;SDS011;10913;51.992;9.228;2023-07-22T14:58:59;5.28;;;4.72;;
21503;SDS011;10913;51.992;9.228;2023-07-22T15:01:24;5.60;;;5.10;;